Time;durP1;ratioP1;P1;durP2;ratioP2;P2;SDS_P1;SDS_P2;PMS_P1;PMS_P2;Temp;Humidity;BMP_temperature;BMP_pressure;BME280_temperature;BME280_humidity;BME280_pressure;Samples;Min_cycle;Max_cycle;Signal;HPM_P1;HPM_P2
2024/03/24 00:02:07;;;;;;;1.65;0.50;;;;;;;24.66;30.99;98963.25;7397624;19;20019;-53
2024/03/24 00:04:33;;;;;;;0.60;0.60;;;;;;;24.42;30.98;98956.44;7398489;19;20043;-52
2024/03/24 00:06:59;;;;;;;0.30;0.30;;;;;;;24.45;30.82;98954.50;7397739;19;20074;-52
2024/03/24 00:09:26;;;;;;;0.43;0.43;;;;;;;25.04;30.28;98943.41;7398393;19;20006;-52
2024/03/24 00:11:52;;;;;;;11.18;1.10;;;;;;;24.92;30.56;98956.75;7398217;19;20014;-52
2024/03/24 00:14:18;;;;;;;0.30;0.30;;;;;;;24.54;30.80;98939.50;7397153;19;20014;-51
2024/03/24 00:16:44;;;;;;;2.00;0.70;;;;;;;24.65;31.03;98945.41;7397263;19;20015;-52
2024/03/24 00:19:10;;;;;;;0.47;0.40;;;;;;;24.64;30.92;98974.47;7400491;19;20006;-51
2024/03/24 00:21:36;;;;;;;6.22;1.25;;;;;;;26.70;29.30;98961.88;7394421;19;20014;-51
2024/03/24 00:24:03;;;;;;;5.50;0.88;;;;;;;27.71;28.94;98961.63;7402995;19;20008;-52
2024/03/24 00:26:29;;;;;;;0.47;0.47;;;;;;;28.42;28.49;98958.31;7396259;19;20006;-53
2024/03/24 00:28:57;;;;;;;2.28;1.20;;;;;;;28.93;27.75;98958.56;7398319;19;20031;-53
2024/03/24 00:31:23;;;;;;;0.85;0.55;;;;;;;29.32;27.70;98961.63;7396034;19;20022;-53
2024/03/24 00:33:49;;;;;;;3.40;1.00;;;;;;;29.11;27.45;98959.63;7396243;19;20028;-53
2024/03/24 00:36:15;;;;;;;0.77;0.68;;;;;;;29.10;27.36;98946.69;7395754;19;20021;-53
2024/03/24 00:38:41;;;;;;;0.43;0.43;;;;;;;29.01;27.38;98962.66;7399524;19;20372;-52
2024/03/24 00:41:07;;;;;;;0.50;0.50;;;;;;;28.93;27.65;98958.56;7395340;19;20029;-53
2024/03/24 00:43:35;;;;;;;1.95;0.70;;;;;;;28.57;27.89;98944.88;7396618;19;20071;-52
2024/03/24 00:46:03;;;;;;;1.08;0.95;;;;;;;28.97;27.75;98955.94;7396325;19;20026;-53
2024/03/24 00:48:30;;;;;;;0.75;0.60;;;;;;;29.03;27.42;98953.44;7397534;19;20027;-53
2024/03/24 00:50:56;;;;;;;11.55;1.83;;;;;;;29.17;27.64;98948.59;7395961;19;20074;-53
2024/03/24 00:53:22;;;;;;;0.60;0.60;;;;;;;29.14;27.52;98939.06;7399476;19;20018;-53
2024/03/24 00:55:49;;;;;;;0.65;0.65;;;;;;;28.87;27.90;98961.09;7399261;19;20010;-53
2024/03/24 00:58:15;;;;;;;3.08;0.85;;;;;;;29.16;27.56;98955.69;7398598;19;20010;-52
2024/03/24 01:00:41;;;;;;;14.05;0.75;;;;;;;29.45;27.14;98961.72;7395647;19;20015;-53
2024/03/24 01:03:07;;;;;;;0.63;0.40;;;;;;;29.51;27.00;98959.19;7396434;19;20505;-52
2024/03/24 01:05:33;;;;;;;3.20;0.77;;;;;;;29.56;27.12;98965.91;7397556;19;20531;-53
2024/03/24 01:07:59;;;;;;;1.20;0.88;;;;;;;29.58;27.00;98961.03;7397180;19;20011;-51
2024/03/24 01:10:26;;;;;;;0.40;0.40;;;;;;;29.75;26.85;98957.75;7395946;19;20020;-52
2024/03/24 01:12:52;;;;;;;11.50;0.77;;;;;;;29.78;26.92;98967.94;7395533;19;20328;-52
2024/03/24 01:15:18;;;;;;;0.40;0.40;;;;;;;30.07;26.94;98972.41;7396291;19;20014;-52
2024/03/24 01:17:45;;;;;;;0.55;0.55;;;;;;;30.20;26.99;98968.81;7396182;19;20017;-52
2024/03/24 01:20:13;;;;;;;7.10;1.27;;;;;;;30.44;26.67;98970.19;7394495;19;20355;-59
2024/03/24 01:22:40;;;;;;;0.68;0.68;;;;;;;30.20;26.71;98968.81;7393519;19;20010;-52
2024/03/24 01:25:07;;;;;;;0.88;0.52;;;;;;;30.59;26.35;98963.81;7393930;19;20019;-52
2024/03/24 01:27:34;;;;;;;0.60;0.60;;;;;;;30.75;26.03;98961.81;7395941;19;20082;-52
2024/03/24 01:30:00;;;;;;;5.28;1.10;;;;;;;31.14;25.61;98965.34;7395416;19;20015;-52
2024/03/24 01:32:26;;;;;;;2.80;0.85;;;;;;;31.24;25.56;98957.22;7395793;19;20115;-52
2024/03/24 01:34:52;;;;;;;0.63;0.63;;;;;;;31.18;25.86;98954.03;7395094;19;20029;-52
2024/03/24 01:37:19;;;;;;;1.10;0.90;;;;;;;31.21;25.83;98970.00;7394118;19;20007;-52
2024/03/24 01:39:46;;;;;;;0.40;0.40;;;;;;;31.14;25.29;98965.34;7394463;19;20018;-52
2024/03/24 01:42:13;;;;;;;0.90;0.90;;;;;;;31.63;25.32;98962.03;7394801;19;20028;-52
2024/03/24 01:44:39;;;;;;;2.63;1.48;;;;;;;31.59;25.20;98961.84;7399048;19;20011;-53
2024/03/24 01:47:06;;;;;;;0.60;0.60;;;;;;;31.53;25.30;98965.19;7393901;19;20359;-52
2024/03/24 01:49:33;;;;;;;5.32;1.10;;;;;;;31.68;25.28;98966.63;7393640;19;20014;-52
2024/03/24 01:51:59;;;;;;;0.50;0.50;;;;;;;31.79;24.96;98968.59;7393908;19;20007;-52
2024/03/24 01:54:25;;;;;;;10.90;1.63;;;;;;;31.74;25.22;98961.16;7395092;19;20021;-52
2024/03/24 01:56:51;;;;;;;4.40;0.82;;;;;;;31.78;25.48;98972.84;7394084;19;20113;-52
2024/03/24 01:59:18;;;;;;;1.05;0.43;;;;;;;31.66;25.00;98972.28;7394489;19;20015;-52
2024/03/24 02:01:45;;;;;;;0.90;0.57;;;;;;;31.67;25.39;98968.00;7391003;19;20010;-53
2024/03/24 02:04:11;;;;;;;0.28;0.28;;;;;;;32.06;25.20;98962.72;7393770;19;20124;-53
2024/03/24 02:06:38;;;;;;;4.05;1.05;;;;;;;32.05;24.66;98969.91;7392356;19;20011;-53
2024/03/24 02:09:04;;;;;;;9.02;0.90;;;;;;;32.11;24.92;98965.16;7394413;19;20022;-53
2024/03/24 02:11:30;;;;;;;0.47;0.47;;;;;;;32.26;24.95;98975.22;7391689;19;20339;-53
2024/03/24 02:13:59;;;;;;;0.30;0.30;;;;;;;32.49;24.87;98974.88;7396131;19;20025;-53
2024/03/24 02:16:26;;;;;;;0.30;0.30;;;;;;;32.46;25.09;98961.00;7393300;19;20014;-53
2024/03/24 02:18:52;;;;;;;1.65;0.55;;;;;;;32.48;24.70;98950.34;7393686;19;20642;-52
2024/03/24 02:21:18;;;;;;;3.50;1.25;;;;;;;32.53;24.77;98977.94;7391855;19;20015;-52
2024/03/24 02:23:44;;;;;;;0.70;0.70;;;;;;;32.49;24.57;98977.75;7394978;19;20011;-52
2024/03/24 02:26:10;;;;;;;1.20;0.75;;;;;;;32.43;24.60;98968.81;7394103;19;20011;-52
2024/03/24 02:28:37;;;;;;;1.25;0.55;;;;;;;32.27;24.50;98965.16;7393524;19;20038;-52
2024/03/24 02:31:03;;;;;;;0.75;0.75;;;;;;;32.13;25.01;98958.75;7393599;19;20010;-52
2024/03/24 02:33:29;;;;;;;0.82;0.65;;;;;;;32.19;24.32;98967.69;7393104;19;20062;-52
2024/03/24 02:35:55;;;;;;;0.75;0.43;;;;;;;32.19;24.75;98970.56;7393852;19;20489;-52
2024/03/24 02:38:21;;;;;;;3.83;0.82;;;;;;;32.11;24.62;98970.19;7393277;19;20010;-52
2024/03/24 02:40:48;;;;;;;0.32;0.32;;;;;;;31.89;24.67;98977.72;7391629;19;20014;-51
2024/03/24 02:43:14;;;;;;;0.73;0.73;;;;;;;31.86;24.99;98991.28;7393254;19;20014;-51
2024/03/24 02:45:40;;;;;;;2.30;1.17;;;;;;;31.78;24.59;98978.63;7393811;19;20023;-51
2024/03/24 02:48:07;;;;;;;3.22;0.95;;;;;;;31.90;25.12;98976.34;7393438;19;20041;-51
2024/03/24 02:50:34;;;;;;;2.50;1.30;;;;;;;31.77;24.72;98980.03;7392061;19;20041;-51
2024/03/24 02:53:02;;;;;;;0.55;0.55;;;;;;;31.45;25.26;98992.81;7391763;19;20021;-51
2024/03/24 02:55:28;;;;;;;0.88;0.57;;;;;;;31.87;24.88;98980.50;7395906;19;20097;-50
2024/03/24 02:57:55;;;;;;;0.85;0.52;;;;;;;32.49;24.63;98969.13;7393429;19;20021;-50
2024/03/24 03:00:21;;;;;;;16.20;1.27;;;;;;;31.80;25.01;98970.81;7391834;19;20022;-51
2024/03/24 03:02:47;;;;;;;11.10;0.70;;;;;;;31.24;25.34;98974.47;7392956;19;20014;-51
2024/03/24 03:05:14;;;;;;;2.08;1.08;;;;;;;31.94;24.69;98982.28;7390980;19;20025;-50
2024/03/24 03:07:42;;;;;;;0.60;0.60;;;;;;;31.85;24.82;98977.53;7392667;19;20015;-52
2024/03/24 03:10:08;;;;;;;1.63;0.40;;;;;;;31.48;25.15;98982.88;7393642;19;20474;-52
2024/03/24 03:12:36;;;;;;;0.60;0.60;;;;;;;31.17;25.38;98994.94;7392559;19;20011;-52
2024/03/24 03:15:04;;;;;;;9.07;1.13;;;;;;;31.01;25.59;98989.13;7391975;19;20019;-52
2024/03/24 03:17:33;;;;;;;4.35;0.52;;;;;;;31.16;25.34;98996.34;7392989;19;20082;-53
2024/03/24 03:20:00;;;;;;;0.43;0.32;;;;;;;31.21;25.20;98980.75;7399998;19;20011;-52
2024/03/24 03:22:26;;;;;;;0.10;0.10;;;;;;;31.00;25.56;98993.34;7399986;19;20014;-53
2024/03/24 03:24:52;;;;;;;0.82;0.20;;;;;;;31.13;25.52;98998.34;7402281;19;20486;-53
2024/03/24 03:27:19;;;;;;;0.57;0.30;;;;;;;31.42;25.35;99003.47;7399628;19;20082;-53
2024/03/24 03:29:45;;;;;;;0.20;0.20;;;;;;;31.14;25.41;98991.22;7398841;19;20042;-53
2024/03/24 03:32:11;;;;;;;0.40;0.40;;;;;;;30.85;25.57;99002.59;7397470;19;20024;-52
2024/03/24 03:34:37;;;;;;;0.50;0.50;;;;;;;30.46;25.77;98996.91;7398890;19;20397;-52
2024/03/24 03:37:03;;;;;;;2.88;0.60;;;;;;;30.82;25.49;99006.75;7399090;19;20024;-53
2024/03/24 03:39:29;;;;;;;7.20;1.17;;;;;;;30.98;25.32;98990.38;7398894;19;20339;-52
2024/03/24 03:41:55;;;;;;;1.48;0.70;;;;;;;31.18;25.19;98987.81;7399118;19;20014;-53
2024/03/24 03:44:21;;;;;;;0.25;0.25;;;;;;;31.28;25.11;98980.44;7399886;19;20066;-52
2024/03/24 03:46:47;;;;;;;0.47;0.47;;;;;;;31.69;25.05;98982.47;7399356;19;20070;-53
2024/03/24 03:49:16;;;;;;;10.32;1.42;;;;;;;31.65;24.81;98976.53;7396564;19;20336;-52
2024/03/24 03:51:44;;;;;;;9.30;1.00;;;;;;;31.60;24.85;98980.63;7399107;19;20529;-53
2024/03/24 03:54:11;;;;;;;0.30;0.30;;;;;;;31.64;24.83;98984.41;7398930;19;20006;-52
2024/03/24 03:56:40;;;;;;;6.05;1.05;;;;;;;31.54;24.83;98977.41;7402774;19;20036;-52
2024/03/24 03:59:07;;;;;;;0.47;0.47;;;;;;;31.35;25.02;98979.38;7397661;19;20033;-52
2024/03/24 04:01:33;;;;;;;16.95;1.23;;;;;;;31.54;25.15;98989.69;7396825;19;20018;-52
2024/03/24 04:03:59;;;;;;;0.85;0.63;;;;;;;31.48;25.14;98998.00;7397393;19;20352;-52
2024/03/24 04:06:26;;;;;;;0.90;0.90;;;;;;;31.47;25.09;98996.50;7399833;19;20041;-52
2024/03/24 04:08:52;;;;;;;1.63;0.70;;;;;;;31.04;24.94;99012.94;7397665;19;20018;-51
2024/03/24 04:11:19;;;;;;;5.45;0.63;;;;;;;31.35;25.00;99016.78;7397610;19;20018;-53
2024/03/24 04:13:48;;;;;;;2.83;1.50;;;;;;;31.29;24.86;99004.22;7397371;19;20014;-52
2024/03/24 04:16:16;;;;;;;18.10;0.70;;;;;;;31.13;25.11;99009.88;7398686;19;20007;-53
2024/03/24 04:18:46;;;;;;;9.30;1.05;;;;;;;30.71;25.05;98996.06;7397179;19;20014;-53
2024/03/24 04:21:12;;;;;;;2.55;0.95;;;;;;;30.81;25.05;99005.25;7394587;19;20462;-52
2024/03/24 04:23:38;;;;;;;0.40;0.40;;;;;;;30.41;25.37;99000.19;7396758;19;20018;-52
2024/03/24 04:26:05;;;;;;;0.47;0.47;;;;;;;30.37;25.52;99005.72;7402361;19;20074;-52
2024/03/24 04:28:31;;;;;;;0.95;0.95;;;;;;;31.29;24.53;98999.22;7397331;19;20018;-51
2024/03/24 04:30:58;;;;;;;0.98;0.98;;;;;;;31.30;24.44;99017.19;7396713;19;20011;-52
2024/03/24 04:33:26;;;;;;;2.50;0.47;;;;;;;31.49;24.18;99002.38;7397200;19;20458;-52
2024/03/24 04:35:53;;;;;;;0.57;0.57;;;;;;;31.61;24.52;99005.13;7395902;19;20498;-52
2024/03/24 04:38:19;;;;;;;0.30;0.30;;;;;;;31.59;24.29;98993.50;7397771;19;20074;-51
2024/03/24 04:40:45;;;;;;;2.28;1.33;;;;;;;31.57;24.40;98999.91;7396367;19;20025;-51
2024/03/24 04:43:13;;;;;;;6.75;2.40;;;;;;;31.51;24.34;99002.50;7396396;19;20030;-51
2024/03/24 04:49:46;;;;;;;17.75;0.85;;;;;;;31.51;24.28;98978.72;7394120;19;20042;-52
2024/03/24 04:53:06;;;;;;;;;;;;;;;31.35;24.46;98988.00;7394122;19;20029;-52
2024/03/24 04:56:52;;;;;;;0.30;0.30;;;;;;;30.63;24.93;98993.53;7398030;19;19914;-52
2024/03/24 05:03:29;;;;;;;1.40;0.20;;;;;;;30.64;25.39;99028.78;7399381;19;20045;-52
2024/03/24 05:06:56;;;;;;;0.25;0.25;;;;;;;31.27;24.75;99024.25;7394443;19;20014;-53
2024/03/24 05:10:42;;;;;;;0.68;0.68;;;;;;;31.07;25.61;99029.69;7393833;19;20045;-53
2024/03/24 05:13:59;;;;;;;0.60;0.60;;;;;;;30.86;25.37;99024.25;7392870;19;20467;-53
2024/03/24 05:17:14;;;;;;;0.30;0.30;;;;;;;30.66;25.36;99026.75;7393340;19;20375;-52
2024/03/24 05:20:24;;;;;;;0.38;0.38;;;;;;;30.63;25.72;99016.53;7392638;19;20032;-53
2024/03/24 05:27:29;;;;;;;0.70;0.70;;;;;;;31.12;24.92;99025.63;7393692;19;20014;-52
2024/03/24 05:57:52;;;;;;;1.05;0.73;;;;;;;30.25;25.94;99054.63;7396997;19;20042;-51
2024/03/24 06:01:28;;;;;;;0.30;0.30;;;;;;;30.45;25.89;99046.41;7392442;19;20041;-51
2024/03/24 06:11:42;;;;;;;0.40;0.40;;;;;;;30.54;26.23;99060.56;7391005;19;20021;-52
2024/03/24 06:14:52;;;;;;;0.47;0.45;;;;;;;29.59;26.41;99057.22;7392914;19;20045;-51
2024/03/24 06:17:43;;;;;;;0.40;0.40;;;;;;;29.76;26.59;99059.69;7391578;19;20037;-51
2024/03/24 06:25:33;;;;;;;0.47;0.45;;;;;;;31.96;24.55;99057.31;7392107;19;20047;-51
2024/03/24 06:33:48;;;;;;;1.75;0.93;;;;;;;31.71;24.74;99066.09;7393609;19;20019;-52
2024/03/24 06:41:27;;;;;;;;;;;;;;;;;;;;;
2024/03/24 06:45:08;;;;;;;0.77;0.77;;;;;;;31.65;24.90;99068.66;7389899;19;20019;-51
2024/03/24 07:00:05;;;;;;;1.85;1.75;;;;;;;32.17;24.50;99065.56;7395294;19;20041;-51
2024/03/24 07:02:55;;;;;;;0.40;0.40;;;;;;;32.69;24.27;99079.63;7393593;19;20019;-51
2024/03/24 07:06:53;;;;;;;1.20;0.40;;;;;;;33.26;24.00;99076.47;7397908;19;20045;-51
2024/03/24 07:14:58;;;;;;;;;;;;;;;;;;;;;
2024/03/24 07:30:02;;;;;;;;;;;;;;;33.19;23.53;99100.69;7400232;19;20498;-58
2024/03/24 07:38:12;;;;;;;0.55;0.50;;;;;;;31.88;24.19;99102.97;7396674;19;20014;-51
2024/03/24 07:45:21;;;;;;;6.43;1.50;;;;;;;31.81;23.83;99115.56;7395354;19;20041;-51
2024/03/24 08:37:43;;;;;;;2.13;0.73;;;;;;;33.25;24.15;99161.59;7395819;19;20378;-50
2024/03/24 08:45:25;;;;;;;0.15;0.15;;;;;;;33.11;24.65;99181.91;7394871;19;20046;-50
2024/03/24 08:51:38;;;;;;;0.77;0.77;;;;;;;33.33;23.97;99190.84;7394895;19;20044;-51
2024/03/24 08:55:30;;;;;;;0.88;0.43;;;;;;;33.58;23.59;99182.66;7394768;19;20038;-50
2024/03/24 08:58:49;;;;;;;1.38;1.27;;;;;;;33.36;23.52;99190.28;7396446;19;20041;-50
2024/03/24 09:01:30;;;;;;;1.88;0.93;;;;;;;33.43;23.82;99188.41;7392822;19;20106;-51
2024/03/24 09:04:30;;;;;;;2.05;0.75;;;;;;;33.81;23.54;99184.38;7396614;19;20033;-50
2024/03/24 09:08:03;;;;;;;0.25;0.25;;;;;;;34.50;23.55;99172.88;7395086;19;20070;-50
2024/03/24 09:18:21;;;;;;;0.60;0.60;;;;;;;33.28;23.67;99195.69;7393889;19;20054;-50
2024/03/24 09:21:45;;;;;;;0.38;0.38;;;;;;;33.79;23.57;99195.84;7391748;19;20018;-52
2024/03/24 09:25:26;;;;;;;2.13;0.75;;;;;;;33.44;23.54;99195.69;7393864;19;20042;-50
2024/03/24 09:29:03;;;;;;;0.73;0.40;;;;;;;33.40;23.80;99195.47;7394953;19;20490;-51
2024/03/24 09:43:16;;;;;;;0.20;0.20;;;;;;;34.28;23.67;99192.94;7392807;19;20017;-50
2024/03/24 09:58:03;;;;;;;3.27;0.57;;;;;;;33.06;23.52;99182.34;7392718;19;20029;-50
2024/03/24 10:01:01;;;;;;;0.95;0.22;;;;;;;33.92;23.87;99194.22;7391835;19;20470;-49
2024/03/24 10:03:55;;;;;;;1.20;0.82;;;;;;;34.07;23.73;99194.22;7392750;19;20015;-50
2024/03/24 10:10:29;;;;;;;0.10;0.10;;;;;;;34.03;22.96;99190.41;7392036;19;20094;-50
2024/03/24 10:14:19;;;;;;;0.22;0.22;;;;;;;33.89;22.48;99193.41;7392039;19;20025;-50
2024/03/24 10:17:23;;;;;;;;;;;;;;;33.97;22.59;99198.78;7392263;19;20025;-50
2024/03/24 10:20:35;;;;;;;1.92;0.25;;;;;;;34.03;22.89;99202.72;7390930;19;19919;-50
2024/03/24 10:23:54;;;;;;;0.28;0.22;;;;;;;34.09;22.96;99205.13;7390694;19;20031;-50
2024/03/24 10:31:09;;;;;;;0.43;0.40;;;;;;;34.29;23.17;99200.19;7394214;19;20048;-49
2024/03/24 10:34:00;;;;;;;0.57;0.52;;;;;;;34.15;23.11;99197.47;7392031;19;20013;-49
2024/03/24 10:37:14;;;;;;;0.20;0.20;;;;;;;33.85;22.84;99199.00;7391451;19;20096;-49
2024/03/24 10:40:24;;;;;;;12.77;1.20;;;;;;;34.41;22.85;99218.09;7391172;19;20018;-50
2024/03/24 11:16:24;;;;;;;8.55;0.65;;;;;;;35.31;21.73;99223.94;7394038;19;20030;-49
2024/03/24 11:49:49;;;;;;;3.60;0.50;;;;;;;35.78;21.88;99223.56;7400725;19;20039;-50
2024/03/24 12:05:28;;;;;;;;;;;;;;;;;;;;;
2024/03/24 12:16:49;;;;;;;0.57;0.10;;;;;;;36.97;20.74;99231.38;7400366;19;20047;-50
2024/03/24 12:28:53;;;;;;;2.17;1.23;;;;;;;36.39;20.91;99238.81;7393876;19;20037;-57
2024/03/24 12:31:20;;;;;;;0.13;0.03;;;;;;;36.65;20.58;99244.78;7397041;19;20036;-57
2024/03/24 12:33:50;;;;;;;0.30;0.25;;;;;;;36.61;20.38;99250.47;7396546;19;20018;-57
2024/03/24 12:36:16;;;;;;;1.00;0.65;;;;;;;36.61;20.46;99246.81;7396806;19;20007;-57
2024/03/24 12:38:43;;;;;;;0.45;0.40;;;;;;;36.67;19.91;99247.75;7396902;19;20014;-57
2024/03/24 12:41:20;;;;;;;1.27;0.77;;;;;;;36.70;20.51;99246.44;7395175;19;20025;-56
2024/03/24 12:43:54;;;;;;;2.40;0.10;;;;;;;36.82;20.37;99249.72;7399665;19;20355;-56
2024/03/24 12:46:25;;;;;;;2.83;0.55;;;;;;;36.01;20.25;99246.19;7396078;19;20013;-58
2024/03/24 12:48:51;;;;;;;0.77;0.70;;;;;;;35.74;20.80;99247.34;7395818;19;20011;-57
2024/03/24 12:51:18;;;;;;;1.52;0.25;;;;;;;35.83;20.62;99238.94;7395550;19;20019;-58
2024/03/24 12:53:51;;;;;;;1.67;0.25;;;;;;;35.96;20.36;99240.91;7399739;19;20003;-57
2024/03/24 12:56:20;;;;;;;3.20;0.30;;;;;;;36.04;21.05;99232.50;7395481;19;20013;-57
2024/03/24 12:58:49;;;;;;;0.20;0.20;;;;;;;36.35;20.86;99221.28;7395092;19;20021;-57
2024/03/24 13:01:17;;;;;;;1.02;0.60;;;;;;;36.54;20.50;99234.28;7394806;19;20003;-57
2024/03/24 13:03:44;;;;;;;0.30;0.30;;;;;;;36.30;20.81;99234.16;7399442;19;20010;-57
2024/03/24 13:06:18;;;;;;;0.15;0.15;;;;;;;36.28;20.55;99228.28;7395406;19;20485;-57
2024/03/24 13:08:46;;;;;;;0.40;0.40;;;;;;;36.27;20.59;99231.88;7395556;19;20078;-57
2024/03/24 13:11:13;;;;;;;0.47;0.47;;;;;;;36.22;20.74;99230.22;7395713;19;20078;-57
2024/03/24 13:13:41;;;;;;;3.22;0.52;;;;;;;36.02;20.59;99232.44;7395602;19;20017;-57
2024/03/24 13:16:16;;;;;;;0.10;0.10;;;;;;;35.84;20.59;99243.34;7399291;19;20037;-57
2024/03/24 13:19:09;;;;;;;0.10;0.10;;;;;;;35.62;20.60;99246.91;7395267;19;20013;-56
2024/03/24 13:21:42;;;;;;;0.10;0.10;;;;;;;35.76;20.64;99244.50;7393902;19;20038;-57
2024/03/24 13:24:11;;;;;;;0.85;0.65;;;;;;;35.95;20.77;99240.19;7395594;19;20006;-57
2024/03/24 13:26:43;;;;;;;2.72;0.40;;;;;;;36.08;20.46;99245.00;7393954;19;20446;-57
2024/03/24 13:29:09;;;;;;;14.70;1.23;;;;;;;35.99;20.25;99236.66;7394828;19;20007;-57
2024/03/24 13:31:36;;;;;;;0.30;0.30;;;;;;;35.52;20.29;99237.81;7394991;19;20033;-57
2024/03/24 13:34:02;;;;;;;0.43;0.35;;;;;;;35.67;20.00;99242.72;7394519;19;20019;-57
2024/03/24 13:36:37;;;;;;;0.30;0.30;;;;;;;35.74;20.20;99237.91;7393432;19;20070;-59
2024/03/24 13:39:18;;;;;;;8.70;1.25;;;;;;;36.11;20.14;99232.03;7395319;19;20050;-57
2024/03/24 13:42:03;;;;;;;3.03;0.82;;;;;;;36.34;20.19;99236.47;7393260;19;20021;-57
2024/03/24 13:45:09;;;;;;;0.30;0.30;;;;;;;36.52;20.70;99233.47;7394259;19;20015;-57
2024/03/24 13:47:38;;;;;;;0.10;0.10;;;;;;;36.75;20.45;99227.00;7391570;19;20462;-57
2024/03/24 13:50:06;;;;;;;0.57;0.20;;;;;;;36.51;20.11;99232.72;7396821;19;20485;-58
2024/03/24 13:52:33;;;;;;;2.72;0.55;;;;;;;36.62;20.44;99230.91;7394232;19;20762;-57
2024/03/24 13:55:06;;;;;;;5.03;1.15;;;;;;;36.75;20.62;99232.78;7396753;19;20010;-58
2024/03/24 13:57:33;;;;;;;8.60;0.28;;;;;;;36.89;20.12;99231.13;7393125;19;20441;-57
2024/03/24 14:00:00;;;;;;;1.65;1.08;;;;;;;35.95;20.18;99230.69;7392866;19;20359;-57
2024/03/24 14:02:26;;;;;;;0.57;0.10;;;;;;;36.06;20.57;99226.78;7395322;19;20466;-58
2024/03/24 14:04:56;;;;;;;1.33;0.60;;;;;;;36.39;20.25;99226.47;7392810;19;20102;-58
2024/03/24 14:07:22;;;;;;;1.27;0.30;;;;;;;36.49;20.09;99218.16;7391561;19;20022;-58
2024/03/24 14:09:50;;;;;;;0.20;0.20;;;;;;;36.38;19.93;99231.56;7393192;19;20018;-56
2024/03/24 14:12:24;;;;;;;1.05;0.30;;;;;;;36.65;20.44;99236.09;7393241;19;20057;-56
2024/03/24 14:15:10;;;;;;;1.00;0.47;;;;;;;36.60;20.41;99234.50;7397984;19;20018;-59
2024/03/24 14:17:49;;;;;;;0.60;0.40;;;;;;;36.49;20.01;99230.47;7393512;19;20038;-55
2024/03/24 14:24:10;;;;;;;0.57;0.10;;;;;;;36.04;20.05;99236.13;7393164;19;20046;-61
2024/03/24 14:26:37;;;;;;;1.35;0.30;;;;;;;36.01;19.67;99236.75;7391668;19;20014;-61
2024/03/24 14:29:03;;;;;;;0.90;0.30;;;;;;;36.03;19.72;99231.00;7391379;19;20019;-60
2024/03/24 14:31:29;;;;;;;0.90;0.40;;;;;;;36.01;19.76;99225.88;7391329;19;20015;-61
2024/03/24 14:33:55;;;;;;;0.22;0.22;;;;;;;35.86;19.98;99237.59;7390016;19;20074;-59
2024/03/24 14:36:36;;;;;;;0.10;0.10;;;;;;;35.28;20.20;99231.06;7390841;19;20358;-58
2024/03/24 14:39:09;;;;;;;0.10;0.10;;;;;;;34.98;20.52;99224.78;7395558;19;20007;-58
2024/03/24 14:41:57;;;;;;;0.30;0.30;;;;;;;34.20;20.95;99239.59;7391191;19;20015;-57
2024/03/24 14:44:24;;;;;;;6.40;0.98;;;;;;;34.55;20.62;99227.38;7392931;19;20069;-58
2024/03/24 14:47:11;;;;;;;2.10;0.30;;;;;;;34.77;20.90;99224.66;7393405;19;20034;-58
2024/03/24 14:49:37;;;;;;;7.60;0.50;;;;;;;34.28;20.74;99216.81;7393240;19;20336;-59
2024/03/24 14:52:03;;;;;;;0.17;0.17;;;;;;;33.99;20.95;99225.63;7392644;19;20014;-58
2024/03/24 14:54:29;;;;;;;1.17;0.52;;;;;;;33.88;20.95;99228.72;7393965;19;20526;-58
2024/03/24 14:56:55;;;;;;;3.50;0.30;;;;;;;33.81;20.76;99227.00;7391824;19;20090;-58
2024/03/24 14:59:21;;;;;;;0.52;0.52;;;;;;;33.87;21.02;99230.13;7392135;19;20029;-58
2024/03/24 15:01:47;;;;;;;1.00;0.77;;;;;;;34.15;21.03;99232.16;7391900;19;20015;-58
2024/03/24 15:04:14;;;;;;;0.40;0.28;;;;;;;34.37;20.43;99223.69;7392536;19;20940;-58
2024/03/24 15:06:40;;;;;;;0.88;0.45;;;;;;;33.97;20.90;99225.53;7392433;19;20002;-59
2024/03/24 15:09:06;;;;;;;4.18;0.63;;;;;;;33.75;20.81;99210.09;7391936;19;20014;-58
2024/03/24 15:11:32;;;;;;;7.97;0.30;;;;;;;33.81;20.92;99221.22;7392385;19;20021;-58
2024/03/24 15:13:58;;;;;;;1.67;0.52;;;;;;;33.98;20.83;99217.63;7397500;19;20018;-59
2024/03/24 15:16:24;;;;;;;0.15;0.15;;;;;;;33.98;20.80;99217.63;7398282;19;20026;-58
2024/03/24 15:18:51;;;;;;;0.63;0.50;;;;;;;33.93;21.03;99219.59;7399338;19;20006;-59
2024/03/24 15:21:17;;;;;;;0.15;0.15;;;;;;;33.37;20.71;99202.56;7398113;19;20340;-58
2024/03/24 15:23:45;;;;;;;0.90;0.70;;;;;;;33.17;21.19;99204.50;7398953;19;20035;-59
2024/03/24 15:26:11;;;;;;;1.30;0.22;;;;;;;33.31;21.20;99199.41;7399634;19;20006;-59
2024/03/24 15:28:37;;;;;;;1.10;0.22;;;;;;;33.49;21.05;99211.78;7398190;19;20114;-58
2024/03/24 15:31:03;;;;;;;0.30;0.30;;;;;;;33.71;21.38;99200.50;7397814;19;20014;-58
2024/03/24 15:33:30;;;;;;;0.43;0.43;;;;;;;33.89;20.64;99213.66;7398280;19;20015;-58
2024/03/24 15:35:56;;;;;;;1.77;0.20;;;;;;;33.85;20.91;99210.56;7398918;19;20010;-58
2024/03/24 15:38:23;;;;;;;0.20;0.20;;;;;;;33.71;20.90;99209.19;7400788;19;20017;-59
2024/03/24 15:40:51;;;;;;;0.35;0.35;;;;;;;33.17;21.01;99211.03;7397705;19;20017;-59
2024/03/24 15:43:21;;;;;;;0.52;0.47;;;;;;;33.33;20.43;99203.13;7397566;19;20056;-59
2024/03/24 15:45:51;;;;;;;0.80;0.40;;;;;;;33.27;20.84;99196.31;7396645;19;20035;-58
2024/03/24 15:48:18;;;;;;;4.03;0.53;;;;;;;33.06;21.16;99196.78;7398354;19;20011;-58
2024/03/24 15:50:44;;;;;;;1.00;0.45;;;;;;;32.96;21.07;99184.72;7399798;19;20029;-58
2024/03/24 15:53:10;;;;;;;1.27;0.25;;;;;;;33.27;21.31;99173.97;7397758;19;20316;-58
2024/03/24 15:55:47;;;;;;;3.55;0.57;;;;;;;33.53;21.06;99166.53;7401663;19;20018;-58
2024/03/24 15:58:24;;;;;;;8.30;0.50;;;;;;;33.47;21.36;99172.00;7398894;19;20098;-59
2024/03/24 16:01:01;;;;;;;4.43;1.13;;;;;;;33.44;21.57;99166.81;7397780;19;20014;-58
2024/03/24 16:03:27;;;;;;;0.50;0.40;;;;;;;33.65;20.83;99162.69;7402438;19;20006;-59
2024/03/24 16:05:54;;;;;;;5.88;2.17;;;;;;;33.63;20.42;99174.16;7395308;19;20007;-59
2024/03/24 16:08:21;;;;;;;1.70;0.50;;;;;;;33.48;20.83;99181.44;7397126;19;20377;-59
2024/03/24 16:11:05;;;;;;;0.75;0.60;;;;;;;33.40;20.85;99175.25;7395462;19;20018;-59
2024/03/24 16:14:00;;;;;;;0.98;0.55;;;;;;;33.41;20.40;99165.97;7399243;19;20029;-59
2024/03/24 16:16:27;;;;;;;7.18;0.93;;;;;;;33.46;20.96;99164.00;7397358;19;20343;-59
2024/03/24 16:18:53;;;;;;;2.33;0.63;;;;;;;33.57;20.83;99160.19;7396588;19;20052;-59
2024/03/24 16:21:28;;;;;;;8.77;0.98;;;;;;;33.57;21.00;99163.06;7395008;19;20014;-59
2024/03/24 16:23:54;;;;;;;6.45;1.10;;;;;;;33.62;20.78;99153.19;7398388;19;20066;-59
2024/03/24 16:26:20;;;;;;;0.32;0.32;;;;;;;33.66;20.94;99162.03;7396423;19;20027;-59
2024/03/24 16:28:47;;;;;;;1.80;0.68;;;;;;;33.44;20.90;99155.97;7397224;19;20010;-58
2024/03/24 16:31:13;;;;;;;1.60;0.47;;;;;;;33.23;21.00;99158.59;7396646;19;20011;-58
2024/03/24 16:33:39;;;;;;;0.45;0.45;;;;;;;33.07;21.21;99152.09;7397535;19;20010;-59
2024/03/24 16:36:06;;;;;;;0.52;0.50;;;;;;;33.08;21.10;99151.44;7397390;19;20010;-59
2024/03/24 16:38:32;;;;;;;0.57;0.57;;;;;;;33.06;21.21;99153.47;7396752;19;20097;-59
2024/03/24 16:40:58;;;;;;;5.68;0.40;;;;;;;33.10;21.17;99156.56;7392862;19;20018;-58
2024/03/24 16:43:25;;;;;;;0.10;0.10;;;;;;;33.13;21.51;99161.03;7397128;19;20007;-59
2024/03/24 16:45:51;;;;;;;3.03;0.50;;;;;;;33.50;20.95;99158.41;7396958;19;20017;-59
2024/03/24 16:48:18;;;;;;;0.75;0.52;;;;;;;32.92;21.14;99158.56;7397000;19;20018;-59
2024/03/24 16:50:44;;;;;;;1.08;0.80;;;;;;;33.09;21.45;99157.97;7396641;19;20062;-59
2024/03/24 16:53:10;;;;;;;0.57;0.57;;;;;;;33.38;20.88;99164.38;7398323;19;20398;-59
2024/03/24 16:55:36;;;;;;;1.20;0.50;;;;;;;32.88;21.28;99154.09;7397738;19;20018;-59
2024/03/24 16:58:03;;;;;;;0.38;0.38;;;;;;;33.32;20.96;99154.69;7392495;19;20022;-59
2024/03/24 17:00:29;;;;;;;0.38;0.38;;;;;;;33.51;20.66;99149.13;7393276;19;20021;-59
2024/03/24 17:02:56;;;;;;;8.30;1.15;;;;;;;33.60;20.92;99150.22;7395566;19;20011;-59
2024/03/24 17:05:22;;;;;;;1.30;1.05;;;;;;;33.52;21.10;99144.84;7395541;19;20007;-59
2024/03/24 17:07:48;;;;;;;9.50;0.73;;;;;;;33.77;20.75;99143.75;7395468;19;20018;-59
2024/03/24 17:10:14;;;;;;;0.90;0.90;;;;;;;33.73;20.76;99148.59;7395359;19;20011;-59
2024/03/24 17:12:40;;;;;;;0.77;0.55;;;;;;;33.71;21.00;99149.28;7394518;19;20014;-59